.
WxDataArchive / Data Records for 2006-01-26
2006-01-25 January 2006 2006-01-27

Data Records for Thursday, 26 January 2006

Time	Temp	Chill	HIndex	Humid	Dewpt	 Wind 	HiWind	WindDir	Rain 	Barom 
-----	----	-----	------	-----	-----	------	------	-------	-----	----- 
00:00	30.4	30.4	30.4	69	21.5	0	2	248	0.00	30.378 
00:05	30.4	30.4	30.4	69	21.5	0	2	248	0.00	30.378 
00:10	30.4	30.4	30.4	69	21.5	0	3	248	0.00	30.378 
00:15	30.4	30.4	30.4	70	21.8	0	2	248	0.00	30.372 
00:20	30.3	30.3	30.3	70	21.7	0	2	248	0.00	30.372 
00:25	30.3	30.3	30.3	70	21.7	0	2	248	0.00	30.372 
00:30	30.3	30.3	30.3	70	21.7	0	1	248	0.00	30.372 
00:35	30.3	30.3	30.3	71	22.0	0	2	248	0.00	30.372 
00:40	30.1	30.1	30.1	71	21.9	1	3	248	0.00	30.372 
00:45	30.1	30.1	30.1	71	21.9	1	2	248	0.00	30.371 
00:50	30.1	30.1	30.1	71	21.9	1	3	248	0.00	30.371 
00:55	30.1	30.1	30.1	71	21.9	1	3	248	0.00	30.371 
01:00	30.1	30.1	30.1	71	21.9	0	2	225	0.00	30.373 
01:05	30.1	30.1	30.1	71	21.9	1	2	225	0.00	30.373 
01:10	30.3	30.3	30.3	71	22.0	1	3	248	0.00	30.373 
01:15	30.3	30.3	30.3	71	22.0	1	3	248	0.00	30.371 
01:20	30.4	30.4	30.4	70	21.8	1	4	248	0.00	30.371 
01:25	30.4	30.4	30.4	71	22.1	1	6	248	0.00	30.371 
01:30	30.3	30.3	30.3	70	21.7	3	9	248	0.00	30.374 
01:35	30.1	30.1	30.1	70	21.5	3	8	248	0.00	30.374 
01:40	30.0	30.0	30.0	71	21.8	2	7	248	0.00	30.374 
01:45	29.8	29.8	29.8	70	21.2	2	6	248	0.00	30.376 
01:50	29.8	29.8	29.8	70	21.2	2	6	270	0.00	30.376 
01:55	29.8	29.8	29.8	70	21.2	2	4	248	0.00	30.376 
02:00	29.7	29.7	29.7	70	21.1	2	6	248	0.00	30.376 
02:05	29.7	29.7	29.7	70	21.1	2	4	248	0.00	30.376 
02:10	29.5	29.5	29.5	70	20.9	2	4	248	0.00	30.376 
02:15	29.5	29.5	29.5	70	20.9	1	2	248	0.00	30.378 
02:20	29.4	29.4	29.4	71	21.2	1	3	248	0.00	30.378 
02:25	29.3	29.3	29.3	71	21.1	1	4	248	0.00	30.378 
02:30	29.1	29.1	29.1	71	20.9	1	3	270	0.00	30.381 
02:35	29.1	29.1	29.1	72	21.2	2	4	248	0.00	30.381 
02:40	29.0	29.0	29.0	72	21.1	1	2	248	0.00	30.381 
02:45	29.0	29.0	29.0	72	21.1	1	5	248	0.00	30.387 
02:50	28.8	28.8	28.8	73	21.3	0	3	248	0.00	30.387 
02:55	28.8	28.8	28.8	73	21.3	0	2	225	0.00	30.387 
03:00	28.7	28.7	28.7	73	21.2	1	2	225	0.00	30.387 
03:05	28.5	28.5	28.5	74	21.3	0	2	225	0.00	30.387 
03:10	28.4	28.4	28.4	74	21.2	0	2	225	0.00	30.387 
03:15	28.4	28.4	28.4	75	21.5	0	1	225	0.00	30.392 
03:20	28.4	28.4	28.4	75	21.5	1	3	248	0.00	30.392 
03:25	28.4	28.4	28.4	75	21.5	1	2	248	0.00	30.392 
03:30	28.2	28.2	28.2	75	21.3	1	2	248	0.00	30.396 
03:35	28.2	28.2	28.2	76	21.6	1	3	248	0.00	30.396 
03:40	28.1	28.1	28.1	76	21.5	1	2	248	0.00	30.396 
03:45	27.9	27.9	27.9	76	21.3	0	1	248	0.00	30.398 
03:50	27.9	27.9	27.9	76	21.3	0	2	248	0.00	30.398 
03:55	27.6	27.6	27.6	77	21.4	0	0	---	0.00	30.398 
04:00	27.5	27.5	27.5	77	21.3	0	1	248	0.00	30.402 
04:05	27.3	27.3	27.3	77	21.1	0	1	248	0.00	30.402 
04:10	27.0	27.0	27.0	78	21.1	0	0	---	0.00	30.402 
04:15	26.9	26.9	26.9	79	21.3	0	0	---	0.00	30.411 
04:20	26.7	26.7	26.7	79	21.1	0	0	---	0.00	30.411 
04:25	26.6	26.6	26.6	79	21.0	0	1	248	0.00	30.411 
04:30	26.6	26.6	26.6	79	21.0	0	1	248	0.00	30.414 
04:35	26.6	26.6	26.6	79	21.0	0	1	248	0.00	30.414 
04:40	26.6	26.6	26.6	80	21.3	0	2	248	0.00	30.414 
04:45	26.6	26.6	26.6	80	21.3	0	1	248	0.00	30.415 
04:50	26.6	26.6	26.6	80	21.3	0	2	248	0.00	30.415 
04:55	26.7	26.7	26.7	80	21.4	1	1	248	0.00	30.415 
05:00	26.7	26.7	26.7	80	21.4	0	2	248	0.00	30.415 
05:05	26.7	26.7	26.7	79	21.1	0	1	248	0.00	30.415 
05:10	26.6	26.6	26.6	79	21.0	1	2	248	0.00	30.415 
05:15	26.4	26.4	26.4	79	20.8	0	2	248	0.00	30.416 
05:20	26.3	26.3	26.3	80	21.0	0	2	248	0.00	30.416 
05:25	26.1	26.1	26.1	80	20.8	0	1	248	0.00	30.416 
05:30	26.0	26.0	26.0	80	20.7	0	2	248	0.00	30.416 
05:35	25.8	25.8	25.8	80	20.5	0	1	248	0.00	30.416 
05:40	25.7	25.7	25.7	81	20.7	0	1	248	0.00	30.416 
05:45	25.6	25.6	25.6	81	20.6	0	1	248	0.00	30.421 
05:50	25.4	25.4	25.4	81	20.4	0	1	248	0.00	30.421 
05:55	25.3	25.3	25.3	82	20.6	0	1	248	0.00	30.421 
06:00	25.1	25.1	25.1	82	20.4	0	2	248	0.00	30.430 
06:05	25.1	25.1	25.1	82	20.4	0	1	248	0.00	30.430 
06:10	25.0	25.0	25.0	82	20.3	0	0	---	0.00	30.430 
06:15	24.8	24.8	24.8	82	20.1	0	0	---	0.00	30.433 
06:20	24.7	24.7	24.7	83	20.3	0	1	248	0.00	30.433 
06:25	24.5	24.5	24.5	83	20.1	0	0	---	0.00	30.433 
06:30	24.4	24.4	24.4	83	20.0	0	0	---	0.00	30.437 
06:35	24.1	24.1	24.1	82	19.4	0	0	---	0.00	30.437 
06:40	23.8	23.8	23.8	83	19.4	0	0	---	0.00	30.437 
06:45	23.6	23.6	23.6	83	19.2	0	0	---	0.00	30.448 
06:50	23.3	23.3	23.3	84	19.2	0	0	---	0.00	30.448 
06:55	23.2	23.2	23.2	85	19.4	0	0	---	0.00	30.448 
07:00	23.0	23.0	23.0	86	19.4	0	0	---	0.00	30.455 
07:05	23.0	23.0	23.0	87	19.7	0	0	---	0.00	30.455 
07:10	22.9	22.9	22.9	87	19.6	0	0	---	0.00	30.455 
07:15	22.9	22.9	22.9	87	19.6	0	0	---	0.00	30.463 
07:20	22.9	22.9	22.9	87	19.6	0	0	---	0.00	30.463 
07:25	22.7	22.7	22.7	87	19.4	0	0	---	0.00	30.463 
07:30	22.7	22.7	22.7	87	19.4	0	0	---	0.00	30.467 
07:35	22.5	22.5	22.5	88	19.5	0	0	---	0.00	30.467 
07:40	22.5	22.5	22.5	88	19.5	0	0	---	0.00	30.467 
07:45	22.4	22.4	22.4	88	19.4	0	0	---	0.00	30.472 
07:50	22.4	22.4	22.4	88	19.4	0	0	---	0.00	30.472 
07:55	22.4	22.4	22.4	88	19.4	0	0	---	0.00	30.472 
08:00	22.4	22.4	22.4	88	19.4	0	0	---	0.00	30.471 
08:05	22.4	22.4	22.4	88	19.4	0	0	---	0.00	30.471 
08:10	22.4	22.4	22.4	88	19.4	0	0	---	0.00	30.471 
08:15	22.4	22.4	22.4	88	19.4	0	0	---	0.00	30.479 
08:20	22.4	22.4	22.4	88	19.4	0	0	---	0.00	30.479 
08:25	22.5	22.5	22.5	88	19.5	0	0	---	0.00	30.479 
08:30	22.7	22.7	22.7	88	19.7	0	1	248	0.00	30.483 
08:35	22.9	22.9	22.9	88	19.9	0	0	---	0.00	30.483 
08:40	23.2	23.2	23.2	88	20.2	0	0	---	0.00	30.483 
08:45	23.6	23.6	23.6	88	20.6	0	0	---	0.00	30.495 
08:50	24.1	24.1	24.1	88	21.1	0	0	---	0.00	30.495 
08:55	24.7	24.7	24.7	87	21.4	0	0	---	0.00	30.495 
09:00	25.0	25.0	25.0	86	21.4	0	1	248	0.00	30.504 
09:05	25.3	25.3	25.3	85	21.4	0	1	248	0.00	30.504 
09:10	25.6	25.6	25.6	85	21.7	0	2	248	0.00	30.504 
09:15	25.8	25.8	25.8	84	21.6	0	1	248	0.00	30.511 
09:20	26.1	26.1	26.1	84	21.9	0	1	248	0.00	30.511 
09:25	26.6	26.6	26.6	83	22.1	0	1	248	0.00	30.511 
09:30	26.9	26.9	26.9	82	22.2	0	1	248	0.00	30.517 
09:35	27.3	27.3	27.3	81	22.3	0	1	248	0.00	30.517 
09:40	27.8	27.8	27.8	81	22.7	0	1	248	0.00	30.517 
09:45	28.2	28.2	28.2	79	22.5	0	1	248	0.00	30.522 
09:50	28.7	28.7	28.7	78	22.7	0	2	202	0.00	30.522 
09:55	29.0	29.0	29.0	78	23.0	0	2	202	0.00	30.522 
10:00	29.3	29.3	29.3	77	23.0	0	1	202	0.00	30.529 
10:05	29.5	29.5	29.5	77	23.2	0	2	202	0.00	30.529 
10:10	29.7	29.7	29.7	78	23.7	0	2	202	0.00	30.529 
10:15	29.8	29.8	29.8	77	23.5	0	1	202	0.00	30.536 
10:20	30.1	30.1	30.1	77	23.8	0	1	202	0.00	30.536 
10:25	30.4	30.4	30.4	76	23.8	0	0	---	0.00	30.536 
10:30	30.7	30.7	30.7	74	23.4	0	1	202	0.00	30.538 
10:35	31.0	31.0	31.0	74	23.7	0	2	202	0.00	30.538 
10:40	31.0	31.0	31.0	71	22.7	0	2	202	0.00	30.538 
10:45	31.3	31.3	31.3	71	23.0	0	1	202	0.00	30.548 
10:50	31.8	31.8	31.8	70	23.2	0	2	202	0.00	30.548 
10:55	32.1	32.1	32.1	68	22.7	1	2	135	0.00	30.548 
11:00	32.2	32.2	32.2	68	22.8	1	3	112	0.00	30.540 
11:05	32.5	32.5	32.5	66	22.4	0	2	112	0.00	30.540 
11:10	32.7	32.7	32.7	65	22.3	1	3	112	0.00	30.540 
11:15	32.9	32.9	32.9	60	20.6	1	2	90	0.00	30.539 
11:20	32.9	32.9	32.9	62	21.3	1	3	112	0.00	30.539 
11:25	33.1	33.1	33.1	61	21.1	1	4	112	0.00	30.539 
11:30	33.1	33.1	33.1	61	21.1	2	5	90	0.00	30.536 
11:35	33.5	33.5	33.5	59	20.7	1	3	135	0.00	30.536 
11:40	33.7	33.7	33.7	61	21.7	1	4	112	0.00	30.536 
11:45	34.0	34.0	34.0	61	22.0	1	2	112	0.00	30.535 
11:50	34.0	34.0	34.0	60	21.6	1	3	68	0.00	30.535 
11:55	34.0	34.0	34.0	59	21.2	1	3	248	0.00	30.535 
12:00	34.3	34.3	34.3	59	21.5	1	3	112	0.00	30.533 
12:05	34.3	34.3	34.3	58	21.1	1	3	112	0.00	30.533 
12:10	34.4	34.4	34.4	59	21.6	1	4	112	0.00	30.533 
12:15	34.6	34.6	34.6	61	22.6	1	4	112	0.00	30.532 
12:20	34.6	34.6	34.6	60	22.2	1	4	270	0.00	30.532 
12:25	34.6	34.6	34.6	59	21.8	1	4	112	0.00	30.532 
12:30	34.4	34.4	34.4	58	21.2	0	2	112	0.00	30.525 
12:35	34.7	34.7	34.7	61	22.6	1	3	112	0.00	30.525 
12:40	35.5	35.5	35.5	59	22.6	2	4	68	0.00	30.525 
12:45	35.5	35.5	35.5	59	22.6	1	2	22	0.00	30.518 
12:50	35.5	35.5	35.5	57	21.8	1	2	22	0.00	30.518 
12:55	35.5	35.5	35.5	58	22.2	2	5	112	0.00	30.518 
13:00	35.5	35.5	35.5	59	22.6	1	3	112	0.00	30.517 
13:05	35.6	35.6	35.6	60	23.1	2	5	90	0.00	30.517 
13:10	36.0	36.0	36.0	58	22.7	1	5	90	0.00	30.517 
13:15	36.0	36.0	36.0	59	23.1	1	3	112	0.00	30.512 
13:20	36.0	36.0	36.0	58	22.7	2	5	112	0.00	30.512 
13:25	36.0	36.0	36.0	57	22.3	2	6	112	0.00	30.512 
13:30	36.0	36.0	36.0	58	22.7	2	4	112	0.00	30.508 
13:35	36.3	36.3	36.3	56	22.1	2	4	90	0.00	30.508 
13:40	36.6	36.6	36.6	57	22.8	1	3	112	0.00	30.508 
13:45	36.9	36.9	36.9	56	22.7	1	6	248	0.00	30.505 
13:50	36.8	36.8	36.8	57	23.0	1	3	90	0.00	30.505 
13:55	36.8	36.8	36.8	54	21.7	1	3	90	0.00	30.505 
14:00	36.8	36.8	36.8	56	22.6	1	3	112	0.00	30.500 
14:05	36.9	36.9	36.9	58	23.5	1	4	112	0.00	30.500 
14:10	37.0	37.0	37.0	55	22.4	2	5	112	0.00	30.500 
14:15	37.3	37.3	37.3	56	23.1	1	2	112	0.00	30.500 
14:20	37.3	37.3	37.3	54	22.2	1	2	112	0.00	30.500 
14:25	37.6	37.6	37.6	56	23.3	1	3	112	0.00	30.500 
14:30	37.8	37.8	37.8	54	22.7	1	4	68	0.00	30.499 
14:35	37.6	37.6	37.6	55	22.9	2	4	68	0.00	30.499 
14:40	37.9	37.9	37.9	56	23.6	2	5	112	0.00	30.499 
14:45	38.2	38.2	38.2	56	23.9	1	5	112	0.00	30.494 
14:50	38.5	38.5	38.5	54	23.3	1	4	248	0.00	30.494 
14:55	38.5	38.5	38.5	54	23.3	1	4	112	0.00	30.494 
15:00	38.8	38.8	38.8	54	23.6	1	5	248	0.00	30.488 
15:05	38.6	38.6	38.6	55	23.8	1	4	112	0.00	30.488 
15:10	38.5	38.5	38.5	54	23.3	1	3	112	0.00	30.488 
15:15	38.3	38.3	38.3	57	24.4	1	3	90	0.00	30.494 
15:20	38.8	38.8	38.8	57	24.9	1	2	225	0.00	30.494 
15:25	38.5	38.5	38.5	57	24.6	1	3	112	0.00	30.494 
15:30	38.6	38.6	38.6	55	23.8	1	3	135	0.00	30.497 
15:35	38.5	38.5	38.5	57	24.6	2	4	112	0.00	30.497 
15:40	38.3	38.3	38.3	57	24.4	1	4	112	0.00	30.497 
15:45	38.3	38.3	38.3	56	24.0	1	3	90	0.00	30.497 
15:50	38.3	38.3	38.3	57	24.4	0	2	90	0.00	30.497 
15:55	38.8	38.8	38.8	57	24.9	1	3	248	0.00	30.497 
16:00	38.9	38.9	38.9	56	24.6	1	4	112	0.00	30.499 
16:05	38.5	38.5	38.5	55	23.8	1	4	90	0.00	30.499 
16:10	38.2	38.2	38.2	56	23.9	2	4	112	0.00	30.499 
16:15	37.9	37.9	37.9	56	23.6	1	4	112	0.00	30.503 
16:20	38.0	38.0	38.0	56	23.7	2	4	90	0.00	30.503 
16:25	38.3	38.3	38.3	56	24.0	0	2	270	0.00	30.503 
16:30	38.3	38.3	38.3	55	23.6	1	4	90	0.00	30.500 
16:35	38.0	38.0	38.0	56	23.7	1	2	112	0.00	30.500 
16:40	37.9	37.9	37.9	56	23.6	1	3	270	0.00	30.500 
16:45	37.8	37.8	37.8	55	23.1	1	4	90	0.00	30.500 
16:50	37.6	37.6	37.6	55	22.9	1	3	112	0.00	30.500 
16:55	37.5	37.5	37.5	55	22.8	1	6	112	0.00	30.500 
17:00	37.3	37.3	37.3	55	22.6	1	2	112	0.00	30.491 
17:05	37.2	37.2	37.2	55	22.5	1	3	90	0.00	30.491 
17:10	37.0	37.0	37.0	56	22.8	0	2	90	0.00	30.491 
17:15	36.9	36.9	36.9	56	22.7	1	3	90	0.00	30.500 
17:20	36.8	36.8	36.8	56	22.6	1	4	90	0.00	30.500 
17:25	36.5	36.5	36.5	57	22.7	0	1	90	0.00	30.500 
17:30	36.2	36.2	36.2	58	22.9	0	1	90	0.00	30.506 
17:35	35.9	35.9	35.9	58	22.6	0	1	90	0.00	30.506 
17:40	35.6	35.6	35.6	58	22.3	0	1	90	0.00	30.506 
17:45	35.5	35.5	35.5	59	22.6	0	1	90	0.00	30.508 
17:50	35.0	35.0	35.0	59	22.1	0	0	---	0.00	30.508 
17:55	34.9	34.9	34.9	59	22.0	0	1	90	0.00	30.508 
18:00	34.7	34.7	34.7	60	22.3	0	1	90	0.00	30.507 
18:05	34.7	34.7	34.7	60	22.3	0	2	90	0.00	30.507 
18:10	34.4	34.4	34.4	61	22.4	0	0	---	0.00	30.507 
18:15	34.3	34.3	34.3	62	22.7	0	1	90	0.00	30.511 
18:20	34.0	34.0	34.0	62	22.4	0	0	---	0.00	30.511 
18:25	33.7	33.7	33.7	63	22.5	0	1	90	0.00	30.511 
18:30	33.4	33.4	33.4	64	22.6	0	0	---	0.00	30.511 
18:35	32.9	32.9	32.9	65	22.4	0	0	---	0.00	30.511 
18:40	32.7	32.7	32.7	66	22.6	0	0	---	0.00	30.511 
18:45	32.2	32.2	32.2	67	22.5	0	0	---	0.00	30.515 
18:50	31.8	31.8	31.8	68	22.5	0	0	---	0.00	30.515 
18:55	31.3	31.3	31.3	69	22.3	0	0	---	0.00	30.515 
19:00	30.9	30.9	30.9	70	22.3	0	0	---	0.00	30.517 
19:05	30.6	30.6	30.6	71	22.3	0	0	---	0.00	30.517 
19:10	30.3	30.3	30.3	71	22.0	0	0	---	0.00	30.517 
19:15	30.0	30.0	30.0	72	22.1	0	0	---	0.00	30.524 
19:20	29.7	29.7	29.7	73	22.1	0	0	---	0.00	30.524 
19:25	29.5	29.5	29.5	73	21.9	0	0	---	0.00	30.524 
19:30	29.3	29.3	29.3	74	22.1	0	0	---	0.00	30.531 
19:35	29.0	29.0	29.0	75	22.1	0	0	---	0.00	30.531 
19:40	28.7	28.7	28.7	75	21.8	0	0	---	0.00	30.531 
19:45	28.4	28.4	28.4	75	21.5	0	0	---	0.00	30.529 
19:50	28.1	28.1	28.1	76	21.5	0	0	---	0.00	30.529 
19:55	27.8	27.8	27.8	77	21.5	0	0	---	0.00	30.529 
20:00	27.6	27.6	27.6	78	21.7	0	0	---	0.00	30.532 
20:05	27.5	27.5	27.5	79	21.9	0	0	---	0.00	30.532 
20:10	27.3	27.3	27.3	79	21.7	0	0	---	0.00	30.532 
20:15	27.2	27.2	27.2	80	21.9	0	0	---	0.00	30.531 
20:20	27.2	27.2	27.2	81	22.2	0	0	---	0.00	30.531 
20:25	27.0	27.0	27.0	81	22.0	0	0	---	0.00	30.531 
20:30	27.0	27.0	27.0	81	22.0	0	0	---	0.00	30.529 
20:35	27.2	27.2	27.2	80	21.9	0	0	---	0.00	30.529 
20:40	27.2	27.2	27.2	80	21.9	0	0	---	0.00	30.529 
20:45	27.3	27.3	27.3	80	22.0	0	0	---	0.00	30.528 
20:50	27.3	27.3	27.3	80	22.0	0	0	---	0.00	30.528 
20:55	27.2	27.2	27.2	80	21.9	0	0	---	0.00	30.528 
21:00	27.2	27.2	27.2	81	22.2	0	0	---	0.00	30.528 
21:05	27.0	27.0	27.0	81	22.0	0	0	---	0.00	30.528 
21:10	27.0	27.0	27.0	81	22.0	0	0	---	0.00	30.528 
21:15	27.0	27.0	27.0	81	22.0	0	0	---	0.00	30.526 
21:20	27.0	27.0	27.0	81	22.0	0	0	---	0.00	30.526 
21:25	26.9	26.9	26.9	81	21.9	0	0	---	0.00	30.526 
21:30	26.7	26.7	26.7	81	21.7	0	0	---	0.00	30.526 
21:35	26.6	26.6	26.6	82	21.9	0	0	---	0.00	30.526 
21:40	26.6	26.6	26.6	83	22.1	0	0	---	0.00	30.526 
21:45	26.4	26.4	26.4	83	22.0	0	0	---	0.00	30.529 
21:50	26.4	26.4	26.4	84	22.2	0	0	---	0.00	30.529 
21:55	26.4	26.4	26.4	83	22.0	0	0	---	0.00	30.529 
22:00	26.4	26.4	26.4	83	22.0	0	0	---	0.00	30.526 
22:05	26.4	26.4	26.4	82	21.7	0	0	---	0.00	30.526 
22:10	26.3	26.3	26.3	83	21.9	0	0	---	0.00	30.526 
22:15	26.3	26.3	26.3	83	21.9	0	0	---	0.00	30.520 
22:20	26.1	26.1	26.1	83	21.7	0	0	---	0.00	30.520 
22:25	26.0	26.0	26.0	84	21.8	0	0	---	0.00	30.520 
22:30	26.0	26.0	26.0	84	21.8	0	0	---	0.00	30.520 
22:35	26.1	26.1	26.1	84	21.9	0	0	---	0.00	30.520 
22:40	26.3	26.3	26.3	83	21.9	0	0	---	0.00	30.520 
22:45	26.3	26.3	26.3	82	21.6	0	0	---	0.00	30.517 
22:50	26.3	26.3	26.3	82	21.6	0	1	90	0.00	30.517 
22:55	26.4	26.4	26.4	82	21.7	0	1	90	0.00	30.517 
23:00	26.6	26.6	26.6	81	21.6	0	1	90	0.00	30.517 
23:05	26.7	26.7	26.7	82	22.0	0	0	---	0.00	30.517 
23:10	26.9	26.9	26.9	82	22.2	0	1	90	0.00	30.517 
23:15	26.9	26.9	26.9	81	21.9	0	0	---	0.00	30.516 
23:20	26.9	26.9	26.9	81	21.9	0	0	---	0.00	30.516 
23:25	26.7	26.7	26.7	81	21.7	0	0	---	0.00	30.516 
23:30	26.6	26.6	26.6	81	21.6	0	0	---	0.00	30.511 
23:35	26.3	26.3	26.3	81	21.3	0	0	---	0.00	30.511 
23:40	26.1	26.1	26.1	82	21.4	0	0	---	0.00	30.511 
23:45	26.1	26.1	26.1	83	21.7	0	0	---	0.00	30.507 
23:50	26.0	26.0	26.0	83	21.6	0	1	90	0.00	30.507 
23:55	26.0	26.0	26.0	82	21.3	0	0	---	0.00	30.507 

CoCoRaHS
IN-AL-39
A2 Web Hosting
Creative Commons License
GoDaddy
Look for:

loaded 2017-10-18 07:33:42 • last modified 2010-11-18 10:43:29
Privacy PolicyDisclaimer
• wx.awcolley.com is powered by PmWiki v.2002016 •
• all content (unless otherwise noted) © 2017 A W Colley